createdAt,value
2018-12-04T00:00:16.986Z,18.67
2018-12-04T00:01:48.657Z,18.70
2018-12-04T00:03:20.129Z,18.62
2018-12-04T00:04:51.700Z,18.73
2018-12-04T00:06:23.272Z,18.65
2018-12-04T00:07:54.844Z,18.65
2018-12-04T00:09:26.417Z,18.57
2018-12-04T00:10:57.987Z,18.65
2018-12-04T00:12:29.558Z,18.62
2018-12-04T00:14:01.130Z,18.62
2018-12-04T00:15:32.702Z,18.52
2018-12-04T00:17:04.273Z,18.52
2018-12-04T00:18:35.845Z,18.51
2018-12-04T00:20:07.617Z,18.52
2018-12-04T00:21:38.989Z,18.37
2018-12-04T00:23:10.559Z,18.32
2018-12-04T00:24:42.131Z,18.36
2018-12-04T00:26:13.805Z,18.41
2018-12-04T00:27:45.273Z,18.35
2018-12-04T00:29:16.851Z,18.39
2018-12-04T00:30:48.417Z,18.39
2018-12-04T00:32:20.139Z,18.45
2018-12-04T00:33:51.560Z,18.51
2018-12-04T00:35:23.132Z,18.35
2018-12-04T00:36:54.704Z,18.44
2018-12-04T00:38:26.475Z,18.44
2018-12-04T00:39:57.850Z,18.48
2018-12-04T00:41:29.418Z,18.44
2018-12-04T00:43:00.989Z,18.41
2018-12-04T00:44:32.662Z,18.33
2018-12-04T00:46:04.134Z,18.42
2018-12-04T00:47:35.705Z,18.44
2018-12-04T00:49:07.276Z,18.41
2018-12-04T00:50:38.948Z,18.35
2018-12-04T00:52:10.422Z,18.35
2018-12-04T00:53:41.991Z,18.32
2018-12-04T00:55:13.569Z,18.41
2018-12-04T00:56:45.334Z,18.37
2018-12-04T00:58:16.706Z,18.41
2018-12-04T00:59:48.278Z,18.36
2018-12-04T01:01:19.850Z,18.35
2018-12-04T01:02:51.421Z,18.37
2018-12-04T01:04:22.992Z,18.42
2018-12-04T01:05:54.565Z,18.39
2018-12-04T01:07:26.154Z,18.35
2018-12-04T01:08:57.708Z,18.33
2018-12-04T01:10:29.278Z,18.39
2018-12-04T01:12:00.850Z,18.42
2018-12-04T01:13:32.422Z,18.37
2018-12-04T01:15:04.102Z,18.30
2018-12-04T01:16:35.565Z,18.36
2018-12-04T01:18:07.136Z,18.39
2018-12-04T01:19:38.705Z,18.36
2018-12-04T01:21:10.380Z,18.18
2018-12-04T01:22:41.849Z,18.15
2018-12-04T01:24:13.424Z,18.10
2018-12-04T01:25:44.990Z,18.14
2018-12-04T01:27:16.674Z,18.21
2018-12-04T01:28:48.136Z,18.17
2018-12-04T01:30:19.703Z,18.23
2018-12-04T01:31:51.274Z,18.26
2018-12-04T01:33:23.073Z,18.27
2018-12-04T01:34:54.416Z,18.21
2018-12-04T01:36:25.987Z,18.18
2018-12-04T01:37:57.558Z,18.21
2018-12-04T01:39:29.229Z,18.32
2018-12-04T01:41:00.703Z,18.33
2018-12-04T01:42:32.270Z,18.30
2018-12-04T01:44:03.841Z,18.18
2018-12-04T01:45:35.713Z,18.21
2018-12-04T01:47:06.983Z,18.20
2018-12-04T01:48:38.554Z,18.21
2018-12-04T01:50:10.136Z,18.12
2018-12-04T01:51:41.896Z,18.18
2018-12-04T01:53:13.267Z,18.18
2018-12-04T01:54:44.838Z,18.39
2018-12-04T01:56:16.409Z,18.44
2018-12-04T01:57:48.080Z,18.39
2018-12-04T01:59:19.551Z,18.47
2018-12-04T02:00:51.122Z,18.50
2018-12-04T02:02:22.692Z,18.54
2018-12-04T02:03:54.266Z,18.52
2018-12-04T02:05:25.835Z,18.41
2018-12-04T02:06:57.406Z,18.33
2018-12-04T02:08:28.977Z,18.36
2018-12-04T02:10:00.649Z,18.48
2018-12-04T02:11:32.119Z,18.36
2018-12-04T02:13:03.690Z,18.42
2018-12-04T02:14:35.261Z,18.45
2018-12-04T02:16:07.133Z,18.44
2018-12-04T02:17:38.404Z,18.36
2018-12-04T02:19:09.974Z,18.29
2018-12-04T02:20:41.546Z,18.30
2018-12-04T02:22:13.117Z,18.27
2018-12-04T02:23:44.690Z,18.20
2018-12-04T02:25:16.260Z,18.23
2018-12-04T02:26:47.830Z,18.18
2018-12-04T02:28:19.502Z,18.14
2018-12-04T02:29:50.973Z,18.14
2018-12-04T02:31:22.543Z,18.05
2018-12-04T02:32:54.114Z,18.03
2018-12-04T02:34:25.687Z,18.12
2018-12-04T02:35:57.256Z,18.00
2018-12-04T02:37:28.829Z,18.07
2018-12-04T02:39:00.399Z,17.99
2018-12-04T02:40:31.978Z,17.92
2018-12-04T02:42:03.539Z,17.84
2018-12-04T02:43:35.112Z,17.78
2018-12-04T02:45:06.682Z,17.82
2018-12-04T02:46:38.654Z,17.79
2018-12-04T02:48:09.824Z,17.87
2018-12-04T02:49:41.395Z,17.90
2018-12-04T02:51:12.970Z,17.93
2018-12-04T02:52:44.636Z,17.90
2018-12-04T02:54:16.110Z,17.84
2018-12-04T02:55:47.679Z,17.89
2018-12-04T02:57:19.249Z,17.77
2018-12-04T02:58:50.822Z,17.81
2018-12-04T03:00:22.392Z,17.78
2018-12-04T03:01:53.962Z,17.79
2018-12-04T03:03:25.534Z,17.84
2018-12-04T03:04:57.204Z,18.00
2018-12-04T03:06:28.674Z,17.92
2018-12-04T03:08:00.245Z,17.82
2018-12-04T03:09:31.816Z,17.93
2018-12-04T03:11:03.386Z,17.89
2018-12-04T03:12:34.957Z,17.86
2018-12-04T03:14:06.528Z,17.79
2018-12-04T03:15:38.099Z,17.78
2018-12-04T03:17:09.677Z,17.78
2018-12-04T03:18:41.241Z,17.87
2018-12-04T03:20:12.811Z,17.79
2018-12-04T03:21:44.381Z,17.77
2018-12-04T03:23:16.152Z,17.79
2018-12-04T03:24:47.523Z,17.74
2018-12-04T03:26:19.097Z,17.82
2018-12-04T03:27:50.674Z,17.74
2018-12-04T03:29:22.234Z,17.63
2018-12-04T03:30:53.806Z,17.72
2018-12-04T03:32:25.379Z,17.68
2018-12-04T03:33:56.946Z,17.64
2018-12-04T03:35:28.516Z,17.63
2018-12-04T03:37:00.088Z,17.66
2018-12-04T03:38:31.657Z,17.66
2018-12-04T03:40:03.229Z,17.66
2018-12-04T03:41:35.601Z,17.71
2018-12-04T03:43:06.370Z,17.63
2018-12-04T03:44:37.940Z,17.58
2018-12-04T03:46:09.512Z,17.55
2018-12-04T03:47:41.082Z,17.52
2018-12-04T03:49:12.652Z,17.49
2018-12-04T03:50:44.223Z,17.31
2018-12-04T03:52:15.794Z,17.23
2018-12-04T03:53:47.464Z,17.19
2018-12-04T03:55:18.934Z,17.07
2018-12-04T03:56:50.507Z,17.07
2018-12-04T03:58:22.076Z,17.01
2018-12-04T03:59:54.549Z,17.04
2018-12-04T04:01:25.218Z,17.06
2018-12-04T04:02:56.788Z,17.14
2018-12-04T04:04:28.361Z,17.06
2018-12-04T04:05:59.930Z,17.15
2018-12-04T04:07:31.500Z,17.11
2018-12-04T04:09:03.072Z,17.18
2018-12-04T04:10:34.641Z,17.18
2018-12-04T04:12:06.214Z,17.15
2018-12-04T04:13:37.783Z,17.23
2018-12-04T04:15:09.353Z,17.33
2018-12-04T04:16:40.924Z,17.51
2018-12-04T04:18:12.594Z,17.55
2018-12-04T04:19:44.064Z,17.55
2018-12-04T04:21:15.636Z,17.68
2018-12-04T04:22:47.210Z,17.66
2018-12-04T04:24:18.876Z,17.63
2018-12-04T04:25:50.346Z,17.72
2018-12-04T04:27:21.917Z,17.74
2018-12-04T04:28:53.487Z,17.75
2018-12-04T04:30:25.359Z,17.81
2018-12-04T04:31:56.634Z,17.78
2018-12-04T04:33:28.199Z,17.78
2018-12-04T04:34:59.773Z,17.71
2018-12-04T04:36:31.440Z,17.72
2018-12-04T04:38:02.911Z,17.81
2018-12-04T04:39:34.481Z,17.68
2018-12-04T04:41:06.052Z,17.70
2018-12-04T04:42:37.623Z,17.74
2018-12-04T04:44:09.198Z,17.71
2018-12-04T04:45:40.767Z,17.71
2018-12-04T04:47:12.335Z,17.58
2018-12-04T04:48:43.907Z,17.56
2018-12-04T04:50:15.476Z,17.56
2018-12-04T04:51:47.046Z,17.52
2018-12-04T04:53:18.618Z,17.52
2018-12-04T04:54:50.289Z,17.49
2018-12-04T04:56:21.758Z,17.44
2018-12-04T04:57:53.329Z,17.58
2018-12-04T04:59:24.900Z,17.44
2018-12-04T05:00:56.469Z,17.52
2018-12-04T05:02:28.039Z,17.28
2018-12-04T05:03:59.611Z,17.33
2018-12-04T05:05:31.185Z,17.33
2018-12-04T05:07:02.757Z,17.26
2018-12-04T05:08:34.321Z,17.25
2018-12-04T05:10:05.891Z,17.33
2018-12-04T05:11:37.464Z,17.19
2018-12-04T05:13:09.133Z,17.28
2018-12-04T05:14:40.603Z,17.21
2018-12-04T05:16:12.174Z,17.18
2018-12-04T05:17:43.745Z,17.30
2018-12-04T05:19:15.315Z,17.19
2018-12-04T05:20:46.891Z,17.22
2018-12-04T05:22:18.456Z,17.25
2018-12-04T05:23:50.026Z,17.18
2018-12-04T05:25:21.597Z,17.16
2018-12-04T05:26:53.167Z,17.36
2018-12-04T05:28:24.737Z,17.44
2018-12-04T05:29:56.308Z,17.31
2018-12-04T05:31:27.978Z,17.56
2018-12-04T05:32:59.449Z,17.56
2018-12-04T05:34:31.027Z,17.52
2018-12-04T05:36:02.590Z,17.52
2018-12-04T05:37:34.160Z,17.48
2018-12-04T05:39:05.733Z,17.55
2018-12-04T05:40:37.300Z,17.74
2018-12-04T05:42:08.870Z,17.56
2018-12-04T05:43:40.440Z,17.56
2018-12-04T05:45:12.010Z,17.52
2018-12-04T05:46:43.581Z,17.48
2018-12-04T05:48:15.151Z,17.49
2018-12-04T05:49:46.822Z,17.52
2018-12-04T05:51:18.293Z,17.46
2018-12-04T05:52:49.862Z,17.54
2018-12-04T05:54:21.433Z,17.51
2018-12-04T05:55:53.003Z,17.49
2018-12-04T05:57:24.573Z,17.54
2018-12-04T05:58:56.144Z,17.56
2018-12-04T06:00:27.714Z,17.55
2018-12-04T06:01:59.284Z,17.55
2018-12-04T06:03:30.855Z,17.46
2018-12-04T06:05:02.425Z,17.44
2018-12-04T06:06:33.996Z,17.46
2018-12-04T06:08:05.665Z,17.43
2018-12-04T06:09:37.141Z,17.46
2018-12-04T06:11:08.730Z,17.41
2018-12-04T06:12:40.276Z,17.30
2018-12-04T06:14:11.846Z,17.30
2018-12-04T06:15:43.416Z,17.40
2018-12-04T06:17:14.987Z,17.49
2018-12-04T06:18:46.557Z,17.56
2018-12-04T06:20:18.127Z,17.44
2018-12-04T06:21:49.698Z,17.54
2018-12-04T06:23:21.269Z,17.56
2018-12-04T06:24:52.838Z,17.55
2018-12-04T06:26:24.508Z,17.52
2018-12-04T06:27:55.978Z,17.31
2018-12-04T06:29:27.548Z,17.30
2018-12-04T06:30:59.119Z,17.30
2018-12-04T06:32:30.689Z,17.41
2018-12-04T06:34:02.259Z,17.41
2018-12-04T06:35:33.829Z,17.48
2018-12-04T06:37:05.399Z,17.46
2018-12-04T06:38:36.970Z,17.55
2018-12-04T06:40:08.540Z,17.46
2018-12-04T06:41:40.111Z,17.46
2018-12-04T06:43:11.681Z,17.43
2018-12-04T06:44:46.751Z,17.49
2018-12-04T06:46:14.822Z,17.41
2018-12-04T06:47:46.392Z,17.31
2018-12-04T06:49:17.962Z,17.28
2018-12-04T06:50:49.532Z,17.33
2018-12-04T06:52:21.103Z,17.28
2018-12-04T06:53:52.673Z,17.38
2018-12-04T06:55:24.246Z,17.30
2018-12-04T06:56:55.815Z,17.40
2018-12-04T06:58:27.384Z,17.33
2018-12-04T06:59:58.955Z,17.31
2018-12-04T07:01:30.524Z,17.30
2018-12-04T07:03:02.196Z,17.31
2018-12-04T07:04:33.668Z,17.23
2018-12-04T07:06:05.238Z,17.26
2018-12-04T07:07:36.809Z,17.36
2018-12-04T07:09:08.376Z,17.31
2018-12-04T07:10:39.946Z,17.25
2018-12-04T07:12:11.516Z,17.30
2018-12-04T07:13:43.087Z,17.31
2018-12-04T07:15:14.660Z,17.34
2018-12-04T07:16:46.227Z,17.30
2018-12-04T07:18:17.802Z,17.33
2018-12-04T07:19:49.368Z,17.23
2018-12-04T07:21:21.038Z,17.30
2018-12-04T07:22:52.515Z,17.33
2018-12-04T07:24:24.080Z,17.30
2018-12-04T07:25:55.649Z,17.15
2018-12-04T07:27:27.218Z,17.15
2018-12-04T07:28:58.789Z,17.07
2018-12-04T07:30:30.399Z,17.19
2018-12-04T07:32:01.930Z,17.15
2018-12-04T07:33:33.502Z,17.14
2018-12-04T07:35:05.071Z,17.21
2018-12-04T07:36:36.644Z,17.15
2018-12-04T07:38:08.211Z,17.15
2018-12-04T07:39:39.882Z,17.16
2018-12-04T07:41:11.352Z,17.33
2018-12-04T07:42:42.940Z,17.31
2018-12-04T07:44:14.493Z,17.26
2018-12-04T07:45:46.100Z,17.28
2018-12-04T07:47:17.633Z,17.30
2018-12-04T07:48:49.372Z,17.36
2018-12-04T07:50:20.775Z,17.36
2018-12-04T07:51:52.344Z,17.28
2018-12-04T07:53:23.915Z,17.49
2018-12-04T07:54:55.521Z,17.44
2018-12-04T07:56:27.086Z,17.33
2018-12-04T07:57:58.725Z,17.36
2018-12-04T07:59:30.215Z,17.37
2018-12-04T08:01:01.767Z,17.36
2018-12-04T08:02:33.338Z,17.30
2018-12-04T08:04:04.907Z,17.33
2018-12-04T08:05:36.629Z,17.25
2018-12-04T08:07:08.047Z,17.30
2018-12-04T08:08:39.653Z,17.30
2018-12-04T08:10:11.187Z,17.34
2018-12-04T08:11:43.195Z,17.48
2018-12-04T08:13:15.373Z,17.36
2018-12-04T08:14:45.905Z,17.31
2018-12-04T08:16:17.570Z,17.26
2018-12-04T08:17:49.046Z,17.31
2018-12-04T08:19:20.612Z,17.15
2018-12-04T08:20:52.183Z,17.14
2018-12-04T08:22:23.751Z,17.19
2018-12-04T08:23:55.628Z,17.23
2018-12-04T08:25:26.893Z,17.16
2018-12-04T08:26:58.463Z,17.18
2018-12-04T08:28:30.040Z,17.23
2018-12-04T08:31:33.178Z,17.26
2018-12-04T08:33:04.781Z,17.31
2018-12-04T08:34:36.437Z,17.43
2018-12-04T08:36:08.139Z,17.46
2018-12-04T08:37:39.458Z,17.54
2018-12-04T08:39:13.196Z,17.63
2018-12-04T08:40:42.620Z,17.74
2018-12-04T08:42:14.576Z,17.84
2018-12-04T08:43:46.046Z,17.77
2018-12-04T08:45:17.618Z,17.78
2018-12-04T08:46:48.882Z,17.81
2018-12-04T08:48:20.453Z,17.77
2018-12-04T08:49:52.222Z,17.71
2018-12-04T08:51:23.869Z,17.81
2018-12-04T08:52:55.571Z,17.75
2018-12-04T08:54:26.735Z,17.82
2018-12-04T08:55:58.345Z,17.82
2018-12-04T08:57:30.003Z,17.78
2018-12-04T08:59:01.757Z,17.82
2018-12-04T09:00:33.035Z,17.75
2018-12-04T09:02:04.626Z,17.74
2018-12-04T09:03:36.225Z,17.84
2018-12-04T09:05:07.771Z,17.82
2018-12-04T09:06:39.641Z,17.82
2018-12-04T09:08:10.876Z,17.92
2018-12-04T09:09:42.549Z,17.84
2018-12-04T09:11:14.117Z,17.96
2018-12-04T09:14:17.326Z,18.08
2018-12-04T09:15:48.728Z,18.05
2018-12-04T09:17:20.303Z,18.05
2018-12-04T09:18:51.900Z,17.93
2018-12-04T09:20:23.513Z,17.96
2018-12-04T09:21:55.083Z,18.07
2018-12-04T09:23:26.752Z,18.08
2018-12-04T09:24:58.177Z,18.23
2018-12-04T09:26:29.731Z,18.15
2018-12-04T09:28:01.654Z,18.12
2018-12-04T09:29:33.113Z,18.29
2018-12-04T09:31:04.904Z,18.21
2018-12-04T09:35:39.637Z,18.45
2018-12-04T09:37:11.072Z,18.51
2018-12-04T09:38:42.839Z,18.50
2018-12-04T09:40:14.393Z,18.47
2018-12-04T09:41:45.446Z,18.50
2018-12-04T09:43:17.034Z,18.47
2018-12-04T09:44:48.739Z,18.47
2018-12-04T09:46:20.188Z,18.48
2018-12-04T09:47:51.835Z,18.57
2018-12-04T09:49:23.311Z,18.72
2018-12-04T09:50:55.300Z,18.73
2018-12-04T09:52:26.448Z,19.02
2018-12-04T09:53:58.379Z,19.02
2018-12-04T09:55:29.801Z,18.78
2018-12-04T10:00:04.415Z,19.10
2018-12-04T10:04:39.135Z,19.22
2018-12-04T10:06:10.705Z,19.23
2018-12-04T10:07:42.239Z,19.22
2018-12-04T10:09:13.994Z,19.33
2018-12-04T10:10:45.463Z,19.47
2018-12-04T10:13:48.904Z,19.43
2018-12-04T10:15:20.490Z,19.54
2018-12-04T10:16:51.626Z,19.41
2018-12-04T10:18:23.713Z,19.48
2018-12-04T10:19:54.912Z,19.51
2018-12-04T10:21:26.447Z,19.65
2018-12-04T10:22:58.040Z,19.69
2018-12-04T10:24:30.433Z,19.80
2018-12-04T10:26:01.380Z,19.80
2018-12-04T10:27:32.735Z,19.83
2018-12-04T10:29:04.214Z,19.99
2018-12-04T10:30:35.790Z,20.16
2018-12-04T10:33:39.171Z,20.42
2018-12-04T10:35:11.011Z,20.39
2018-12-04T10:36:42.918Z,20.50
2018-12-04T10:38:13.943Z,20.20
2018-12-04T10:39:45.260Z,20.16
2018-12-04T10:41:18.138Z,19.98
2018-12-04T10:42:48.968Z,19.95
2018-12-04T10:44:20.404Z,20.41
2018-12-04T10:45:51.767Z,20.89
2018-12-04T10:48:54.948Z,21.16
2018-12-04T10:50:26.374Z,21.38
2018-12-04T10:51:58.158Z,21.37
2018-12-04T10:53:29.803Z,21.29
2018-12-04T10:55:01.580Z,20.88
2018-12-04T10:56:32.852Z,21.07
2018-12-04T10:58:04.456Z,21.22
2018-12-04T10:59:36.466Z,21.46
2018-12-04T11:01:07.379Z,21.72
2018-12-04T11:02:38.907Z,21.88
2018-12-04T11:04:10.585Z,22.61
2018-12-04T11:05:42.136Z,23.16
2018-12-04T11:10:17.102Z,23.23
2018-12-04T11:11:48.655Z,22.80
2018-12-04T11:13:20.406Z,22.46
2018-12-04T11:14:51.992Z,22.75
2018-12-04T11:16:23.220Z,23.51
2018-12-04T11:17:54.749Z,23.42
2018-12-04T11:19:26.292Z,22.72
2018-12-04T11:20:58.771Z,22.70
2018-12-04T11:22:29.526Z,22.97
2018-12-04T11:24:01.513Z,23.47
2018-12-04T11:25:32.720Z,24.31
2018-12-04T11:27:05.045Z,24.93
2018-12-04T11:28:35.970Z,25.08
2018-12-04T11:30:07.331Z,25.10
2018-12-04T11:31:38.911Z,24.20
2018-12-04T11:33:10.513Z,24.00
2018-12-04T11:34:42.090Z,24.64
2018-12-04T11:36:13.873Z,24.52
2018-12-04T11:37:45.737Z,24.68
2018-12-04T11:39:17.447Z,25.02
2018-12-04T11:40:48.707Z,24.60
2018-12-04T11:42:20.757Z,23.97
2018-12-04T11:45:23.149Z,23.76
2018-12-04T11:46:54.824Z,24.45
2018-12-04T11:48:26.481Z,25.42
2018-12-04T11:49:57.957Z,25.94
2018-12-04T11:51:29.935Z,25.18
2018-12-04T11:53:01.109Z,24.98
2018-12-04T11:54:32.982Z,24.84
2018-12-04T11:56:04.862Z,25.00
2018-12-04T11:57:36.230Z,25.20
2018-12-04T11:59:07.939Z,25.62
2018-12-04T12:00:39.187Z,24.68
2018-12-04T12:02:10.867Z,24.71
2018-12-04T12:03:42.163Z,25.09
2018-12-04T12:05:13.768Z,25.52
2018-12-04T12:06:45.611Z,24.95
2018-12-04T12:08:16.889Z,25.23
2018-12-04T12:09:48.512Z,24.98
2018-12-04T12:11:20.700Z,25.50
2018-12-04T12:12:51.675Z,24.80
2018-12-04T12:14:23.547Z,24.80
2018-12-04T12:15:54.820Z,25.21
2018-12-04T12:17:26.530Z,25.61
2018-12-04T12:22:01.163Z,25.73
2018-12-04T12:25:04.350Z,25.46
2018-12-04T12:26:37.000Z,25.61
2018-12-04T12:28:07.914Z,25.88
2018-12-04T12:29:40.025Z,25.94
2018-12-04T12:31:12.028Z,26.13
2018-12-04T12:32:42.925Z,25.91
2018-12-04T12:34:15.199Z,25.91
2018-12-04T12:37:17.580Z,26.12
2018-12-04T12:38:48.552Z,26.44
2018-12-04T12:40:20.290Z,26.23
2018-12-04T12:41:51.844Z,26.15
2018-12-04T12:43:23.605Z,25.76
2018-12-04T12:44:54.888Z,25.62
2018-12-04T12:46:26.477Z,26.26
2018-12-04T12:47:58.658Z,26.76
2018-12-04T12:49:29.926Z,26.77
2018-12-04T12:52:33.586Z,26.51
2018-12-04T12:54:04.694Z,26.73
2018-12-04T12:55:36.210Z,27.22
2018-12-04T12:57:07.954Z,27.44
2018-12-04T12:58:39.368Z,26.05
2018-12-04T13:00:10.953Z,26.26
2018-12-04T13:01:42.381Z,26.18
2018-12-04T13:03:14.637Z,27.28
2018-12-04T13:04:45.518Z,27.57
2018-12-04T13:07:48.804Z,27.92
2018-12-04T13:09:20.466Z,27.72
2018-12-04T13:10:51.945Z,27.36
2018-12-04T13:12:23.409Z,27.37
2018-12-04T13:13:55.092Z,27.82
2018-12-04T13:15:26.976Z,27.75
2018-12-04T13:16:58.391Z,27.72
2018-12-04T13:18:29.982Z,28.06
2018-12-04T13:20:01.645Z,26.82
2018-12-04T13:21:33.224Z,27.54
2018-12-04T13:23:04.706Z,28.29
2018-12-04T13:24:36.393Z,28.56
2018-12-04T13:26:07.692Z,27.84
2018-12-04T13:27:39.621Z,27.92
2018-12-04T13:30:42.563Z,28.61
2018-12-04T13:32:14.651Z,28.25
2018-12-04T13:33:45.931Z,27.87
2018-12-04T13:38:20.576Z,28.46
2018-12-04T13:39:51.960Z,28.04
2018-12-04T13:41:23.748Z,28.00
2018-12-04T13:42:55.677Z,28.02
2018-12-04T13:45:58.492Z,28.58
2018-12-04T13:47:30.081Z,28.00
2018-12-04T13:50:33.452Z,28.41
2018-12-04T13:52:04.737Z,28.76
2018-12-04T13:53:36.220Z,29.15
2018-12-04T13:55:08.952Z,28.95
2018-12-04T13:56:39.698Z,27.85
2018-12-04T13:58:11.211Z,27.63
2018-12-04T13:59:42.564Z,28.00
2018-12-04T14:01:14.683Z,28.06
2018-12-04T14:04:17.421Z,27.85
2018-12-04T14:05:48.917Z,27.57
2018-12-04T14:07:20.488Z,27.69
2018-12-04T14:08:52.448Z,28.14
2018-12-04T14:10:23.822Z,28.58
2018-12-04T14:11:55.964Z,28.77
2018-12-04T14:13:26.823Z,29.00
2018-12-04T14:14:58.953Z,27.47
2018-12-04T14:16:30.542Z,27.96
2018-12-04T14:18:01.780Z,27.99
2018-12-04T14:19:33.186Z,28.48
2018-12-04T14:21:04.758Z,28.68
2018-12-04T14:22:36.347Z,29.12
2018-12-04T14:24:08.441Z,29.24
2018-12-04T14:27:11.086Z,28.36
2018-12-04T14:28:42.793Z,28.18
2018-12-04T14:31:45.855Z,28.06
2018-12-04T14:36:21.122Z,28.39
2018-12-04T14:37:52.200Z,28.34
2018-12-04T14:39:24.306Z,28.31
2018-12-04T14:40:55.347Z,29.12
2018-12-04T14:45:30.505Z,29.26
2018-12-04T14:48:33.283Z,29.41
2018-12-04T14:51:36.440Z,29.24
2018-12-04T14:53:08.662Z,28.89
2018-12-04T14:54:39.878Z,28.80
2018-12-04T14:57:42.866Z,29.43
2018-12-04T14:59:14.906Z,29.34
2018-12-04T15:00:46.207Z,29.73
2018-12-04T15:02:17.688Z,29.18
2018-12-04T15:03:49.241Z,29.23
2018-12-04T15:05:21.064Z,29.57
2018-12-04T15:08:24.209Z,30.07
2018-12-04T15:09:55.784Z,29.06
2018-12-04T15:12:59.133Z,28.59
2018-12-04T15:14:30.228Z,28.77
2018-12-04T15:16:01.802Z,28.80
2018-12-04T15:17:33.699Z,28.71
2018-12-04T15:19:04.997Z,28.55
2018-12-04T15:20:36.573Z,28.96
2018-12-04T15:22:08.626Z,29.53
2018-12-04T15:25:11.323Z,28.46
2018-12-04T15:26:42.906Z,29.00
2018-12-04T15:28:14.691Z,29.12
2018-12-04T15:29:46.057Z,29.43
2018-12-04T15:32:49.235Z,28.66
2018-12-04T15:34:20.813Z,28.62
2018-12-04T15:35:53.314Z,29.70
2018-12-04T15:37:24.184Z,28.93
2018-12-04T15:38:55.582Z,29.36
2018-12-04T15:40:27.259Z,29.52
2018-12-04T15:41:58.735Z,29.24
2018-12-04T15:43:30.329Z,30.23
2018-12-04T15:45:01.893Z,30.45
2018-12-04T15:46:33.720Z,31.21
2018-12-04T15:48:06.003Z,30.38
2018-12-04T15:49:36.721Z,30.13
2018-12-04T15:51:08.318Z,30.46
2018-12-04T15:52:39.826Z,30.22
2018-12-04T15:54:11.737Z,30.24
2018-12-04T15:55:43.802Z,30.07
2018-12-04T15:57:15.134Z,29.65
2018-12-04T15:58:46.449Z,29.70
2018-12-04T16:00:18.913Z,29.85
2018-12-04T16:01:51.844Z,30.17
2018-12-04T16:03:23.457Z,31.58
2018-12-04T16:04:55.681Z,30.47
2018-12-04T16:06:25.270Z,30.16
2018-12-04T16:07:56.925Z,30.20
2018-12-04T16:09:27.412Z,30.16
2018-12-04T16:10:59.252Z,30.89
2018-12-04T16:12:30.748Z,30.95
2018-12-04T16:14:02.595Z,31.36
2018-12-04T16:15:33.938Z,31.25
2018-12-04T16:17:07.358Z,30.34
2018-12-04T16:18:37.707Z,30.43
2018-12-04T16:20:11.978Z,31.25
2018-12-04T16:21:41.141Z,32.07
2018-12-04T16:24:43.639Z,29.73
2018-12-04T16:26:17.076Z,29.82
2018-12-04T16:27:47.539Z,30.45
2018-12-04T16:29:18.194Z,30.54
2018-12-04T16:30:50.453Z,30.27
2018-12-04T16:32:22.994Z,29.70
2018-12-04T16:33:52.704Z,30.55
2018-12-04T16:35:24.508Z,30.15
2018-12-04T16:38:27.775Z,30.54
2018-12-04T16:39:59.652Z,31.80
2018-12-04T16:41:31.483Z,31.13
2018-12-04T16:43:02.270Z,30.95
2018-12-04T16:46:05.913Z,30.72
2018-12-04T16:47:37.397Z,30.76
2018-12-04T16:49:09.097Z,29.78
2018-12-04T16:50:41.041Z,30.11
2018-12-04T16:52:12.021Z,31.19
2018-12-04T16:55:15.128Z,31.50
2018-12-04T16:58:18.464Z,31.06
2018-12-04T17:01:21.228Z,30.95
2018-12-04T17:02:53.127Z,31.20
2018-12-04T17:04:24.402Z,31.88
2018-12-04T17:05:56.255Z,31.32
2018-12-04T17:08:59.166Z,31.14
2018-12-04T17:10:30.830Z,31.14
2018-12-04T17:12:02.345Z,30.91
2018-12-04T17:13:33.931Z,31.61
2018-12-04T17:15:05.516Z,32.21
2018-12-04T17:16:37.229Z,31.68
2018-12-04T17:18:08.692Z,32.10
2018-12-04T17:19:40.282Z,32.67
2018-12-04T17:21:12.376Z,32.00
2018-12-04T17:22:43.766Z,32.15
2018-12-04T17:24:15.769Z,31.39
2018-12-04T17:25:46.635Z,31.19
2018-12-04T17:27:18.277Z,31.95
2018-12-04T17:28:49.967Z,31.96
2018-12-04T17:30:21.448Z,32.18
2018-12-04T17:31:53.564Z,32.18
2018-12-04T17:33:24.580Z,31.62
2018-12-04T17:36:28.460Z,32.25
2018-12-04T17:38:01.336Z,32.22
2018-12-04T17:39:31.774Z,32.10
2018-12-04T17:41:04.071Z,32.38
2018-12-04T17:42:34.936Z,32.35
2018-12-04T17:47:09.492Z,33.44
2018-12-04T17:48:40.664Z,33.04
2018-12-04T17:50:12.074Z,31.58
2018-12-04T17:51:43.693Z,32.19
2018-12-04T17:53:15.625Z,31.48
2018-12-04T17:54:48.132Z,31.85
2018-12-04T17:56:19.089Z,32.19
2018-12-04T17:57:51.795Z,32.07
2018-12-04T18:00:53.259Z,32.79
2018-12-04T18:02:25.660Z,32.60
2018-12-04T18:03:56.467Z,32.38
2018-12-04T18:05:27.933Z,32.47
2018-12-04T18:06:59.513Z,32.63
2018-12-04T18:08:31.100Z,30.77
2018-12-04T18:10:02.993Z,31.32
2018-12-04T18:11:34.424Z,32.03
2018-12-04T18:13:05.973Z,31.86
2018-12-04T18:14:38.587Z,32.29
2018-12-04T18:16:09.036Z,32.41
2018-12-04T18:17:40.623Z,32.69
2018-12-04T18:19:12.221Z,32.30
2018-12-04T18:20:43.805Z,31.20
2018-12-04T18:22:15.385Z,31.17
2018-12-04T18:23:46.971Z,30.92
2018-12-04T18:25:18.561Z,30.16
2018-12-04T18:26:50.276Z,29.95
2018-12-04T18:28:22.252Z,29.71
2018-12-04T18:29:53.523Z,29.87
2018-12-04T18:31:25.366Z,30.20
2018-12-04T18:32:57.055Z,30.42
2018-12-04T18:34:28.371Z,30.37
2018-12-04T18:37:31.269Z,30.38
2018-12-04T18:39:02.817Z,30.10
2018-12-04T18:40:34.425Z,29.85
2018-12-04T18:42:06.712Z,29.42
2018-12-04T18:43:37.569Z,29.11
2018-12-04T18:45:09.149Z,28.58
2018-12-04T18:46:41.132Z,28.76
2018-12-04T18:48:12.368Z,29.05
2018-12-04T18:49:44.134Z,28.19
2018-12-04T18:51:15.483Z,29.15
2018-12-04T18:52:47.109Z,29.12
2018-12-04T18:54:18.647Z,29.45
2018-12-04T18:57:22.117Z,28.51
2018-12-04T18:58:53.396Z,28.66
2018-12-04T19:00:25.181Z,29.19
2018-12-04T19:01:56.561Z,28.96
2018-12-04T19:03:28.144Z,28.55
2018-12-04T19:05:00.033Z,28.18
2018-12-04T19:06:31.314Z,28.24
2018-12-04T19:08:02.891Z,28.58
2018-12-04T19:09:34.624Z,28.92
2018-12-04T19:11:06.057Z,29.64
2018-12-04T19:14:09.235Z,30.27
2018-12-04T19:15:40.802Z,29.37
2018-12-04T19:17:12.689Z,28.58
2018-12-04T19:18:44.171Z,28.34
2018-12-04T19:20:15.751Z,29.43
2018-12-04T19:21:47.131Z,30.19
2018-12-04T19:23:18.715Z,30.72
2018-12-04T19:24:50.299Z,31.13
2018-12-04T19:26:21.878Z,29.70
2018-12-04T19:27:53.764Z,28.74
2018-12-04T19:29:25.348Z,28.21
2018-12-04T19:32:28.208Z,28.22
2018-12-04T19:33:59.790Z,28.17
2018-12-04T19:35:31.677Z,28.24
2018-12-04T19:37:02.954Z,28.06
2018-12-04T19:38:34.541Z,27.88
2018-12-04T19:40:06.118Z,27.65
2018-12-04T19:41:37.700Z,27.72
2018-12-04T19:43:09.281Z,27.70
2018-12-04T19:44:40.863Z,27.63
2018-12-04T19:46:12.558Z,27.65
2018-12-04T19:47:44.246Z,27.46
2018-12-04T19:50:47.196Z,27.29
2018-12-04T19:52:18.766Z,27.27
2018-12-04T19:53:50.347Z,27.47
2018-12-04T19:55:21.927Z,27.72
2018-12-04T19:56:53.510Z,27.96
2018-12-04T19:58:25.089Z,28.11
2018-12-04T19:59:56.669Z,28.04
2018-12-04T20:01:28.251Z,27.66
2018-12-04T20:02:59.831Z,28.07
2018-12-04T20:04:31.510Z,28.17
2018-12-04T20:06:02.991Z,28.00
2018-12-04T20:07:34.572Z,28.46
2018-12-04T20:09:06.155Z,27.60
2018-12-04T20:10:37.975Z,27.37
2018-12-04T20:12:09.501Z,27.39
2018-12-04T20:13:40.932Z,27.57
2018-12-04T20:15:12.475Z,27.85
2018-12-04T20:19:47.415Z,30.65
2018-12-04T20:21:18.806Z,30.75
2018-12-04T20:22:50.377Z,30.54
2018-12-04T20:24:21.958Z,30.64
2018-12-04T20:25:53.742Z,31.13
2018-12-04T20:27:25.120Z,31.06
2018-12-04T20:28:56.706Z,30.38
2018-12-04T20:30:28.285Z,28.96
2018-12-04T20:31:59.867Z,28.39
2018-12-04T20:33:31.448Z,28.07
2018-12-04T20:35:03.030Z,27.77
2018-12-04T20:36:34.621Z,28.18
2018-12-04T20:38:06.291Z,28.37
2018-12-04T20:39:37.773Z,27.78
2018-12-04T20:41:09.354Z,27.49
2018-12-04T20:42:40.935Z,27.07
2018-12-04T20:44:12.515Z,26.81
2018-12-04T20:45:44.095Z,26.62
2018-12-04T20:47:15.677Z,26.62
2018-12-04T20:48:47.256Z,26.58
2018-12-04T20:50:18.839Z,26.51
2018-12-04T20:51:50.416Z,26.28
2018-12-04T20:53:23.021Z,26.36
2018-12-04T20:54:53.578Z,26.70
2018-12-04T20:56:25.382Z,26.99
2018-12-04T20:57:56.733Z,27.06
2018-12-04T20:59:28.313Z,26.80
2018-12-04T21:00:59.892Z,26.73
2018-12-04T21:02:31.478Z,26.89
2018-12-04T21:04:03.051Z,26.87
2018-12-04T21:05:34.629Z,26.85